NZBA weather

Balclutha Aerodrome
Balclutha, Otago Region, New Zealand

Public forecast

Using degrees Celsius for public forecast. Weather courtesy of forecast.io.

METAR (pilot weather report)

Closest report is Christchurch International Airport, 203.3 nm (376.6 km) NE. Retrieved 2019/06/25 09:30 UTC (7 minutes ago):

NZCH 250930Z AUTO 23003KT 3300 R20/0900D BR BKN003/// 00/00 Q1029 BECMG 9999 NSW

TAF (pilot weather forecast)

Forecast is more than 12 hours old.

Closest forecast is Queenstown International Airport, 84.8 nm (157.0 km) NNW. Retrieved 2019/06/24 18:25 UTC (15 hours ago):

TAF NZQN 241707Z 2418/2512 03005KT 9999 FEW010 SCT020 FM250100 22010KT 9999 SKC BECMG 2505/2507 VRB02KT